sensor_id;sensor_type;location;lat;lon;timestamp;temperature;humidity
78516;SHT31;67815;51.990;5.688;2023-08-20T00:02:17;21.8;68.4
78516;SHT31;67815;51.990;5.688;2023-08-20T00:04:48;21.8;68.4
78516;SHT31;67815;51.990;5.688;2023-08-20T00:07:19;21.8;68.3
78516;SHT31;67815;51.990;5.688;2023-08-20T00:09:48;21.7;68.5
78516;SHT31;67815;51.990;5.688;2023-08-20T00:12:18;21.7;68.7
78516;SHT31;67815;51.990;5.688;2023-08-20T00:14:56;21.7;68.8
78516;SHT31;67815;51.990;5.688;2023-08-20T00:17:34;21.7;69.1
78516;SHT31;67815;51.990;5.688;2023-08-20T00:20:07;21.7;69.0
78516;SHT31;67815;51.990;5.688;2023-08-20T00:22:41;21.7;69.1
78516;SHT31;67815;51.990;5.688;2023-08-20T00:25:15;21.6;68.9
78516;SHT31;67815;51.990;5.688;2023-08-20T00:27:46;21.6;68.9
78516;SHT31;67815;51.990;5.688;2023-08-20T00:30:15;21.6;69.0
78516;SHT31;67815;51.990;5.688;2023-08-20T00:32:45;21.6;69.2
78516;SHT31;67815;51.990;5.688;2023-08-20T00:35:14;21.6;69.2
78516;SHT31;67815;51.990;5.688;2023-08-20T00:37:44;21.6;69.1
78516;SHT31;67815;51.990;5.688;2023-08-20T00:40:16;21.6;69.2
78516;SHT31;67815;51.990;5.688;2023-08-20T00:42:46;21.6;69.2
78516;SHT31;67815;51.990;5.688;2023-08-20T00:45:16;21.5;69.3
78516;SHT31;67815;51.990;5.688;2023-08-20T00:47:46;21.5;69.4
78516;SHT31;67815;51.990;5.688;2023-08-20T00:50:17;21.5;69.5
78516;SHT31;67815;51.990;5.688;2023-08-20T00:52:50;21.5;69.5
78516;SHT31;67815;51.990;5.688;2023-08-20T00:55:19;21.5;69.4
78516;SHT31;67815;51.990;5.688;2023-08-20T00:57:49;21.5;69.3
78516;SHT31;67815;51.990;5.688;2023-08-20T01:00:21;21.5;69.5
78516;SHT31;67815;51.990;5.688;2023-08-20T01:02:51;21.5;69.7
78516;SHT31;67815;51.990;5.688;2023-08-20T01:05:24;21.5;69.6
78516;SHT31;67815;51.990;5.688;2023-08-20T01:08:00;21.5;69.7
78516;SHT31;67815;51.990;5.688;2023-08-20T01:10:36;21.5;69.9
78516;SHT31;67815;51.990;5.688;2023-08-20T01:13:10;21.5;70.1
78516;SHT31;67815;51.990;5.688;2023-08-20T01:15:41;21.5;69.7
78516;SHT31;67815;51.990;5.688;2023-08-20T01:18:11;21.5;69.8
78516;SHT31;67815;51.990;5.688;2023-08-20T01:20:47;21.5;69.7
78516;SHT31;67815;51.990;5.688;2023-08-20T01:23:42;21.6;69.8
78516;SHT31;67815;51.990;5.688;2023-08-20T01:26:25;21.6;69.6
78516;SHT31;67815;51.990;5.688;2023-08-20T01:28:58;21.6;69.3
78516;SHT31;67815;51.990;5.688;2023-08-20T01:31:29;21.6;69.4
78516;SHT31;67815;51.990;5.688;2023-08-20T01:33:59;21.6;69.4
78516;SHT31;67815;51.990;5.688;2023-08-20T01:36:31;21.6;69.5
78516;SHT31;67815;51.990;5.688;2023-08-20T01:39:00;21.7;69.3
78516;SHT31;67815;51.990;5.688;2023-08-20T01:41:32;21.7;69.2
78516;SHT31;67815;51.990;5.688;2023-08-20T01:44:01;21.7;69.3
78516;SHT31;67815;51.990;5.688;2023-08-20T01:46:31;21.7;69.2
78516;SHT31;67815;51.990;5.688;2023-08-20T01:49:00;21.7;68.9
78516;SHT31;67815;51.990;5.688;2023-08-20T01:51:30;21.7;69.2
78516;SHT31;67815;51.990;5.688;2023-08-20T01:54:00;21.7;68.9
78516;SHT31;67815;51.990;5.688;2023-08-20T01:56:30;21.7;68.8
78516;SHT31;67815;51.990;5.688;2023-08-20T01:59:01;21.7;68.7
78516;SHT31;67815;51.990;5.688;2023-08-20T02:01:31;21.7;68.6
78516;SHT31;67815;51.990;5.688;2023-08-20T02:04:02;21.7;68.6
78516;SHT31;67815;51.990;5.688;2023-08-20T02:06:32;21.7;68.6
78516;SHT31;67815;51.990;5.688;2023-08-20T02:09:01;21.7;68.6
78516;SHT31;67815;51.990;5.688;2023-08-20T02:11:32;21.6;68.3
78516;SHT31;67815;51.990;5.688;2023-08-20T02:14:04;21.6;68.4
78516;SHT31;67815;51.990;5.688;2023-08-20T02:16:34;21.6;68.4
78516;SHT31;67815;51.990;5.688;2023-08-20T02:19:04;21.6;68.5
78516;SHT31;67815;51.990;5.688;2023-08-20T02:21:35;21.6;68.7
78516;SHT31;67815;51.990;5.688;2023-08-20T02:24:09;21.5;68.8
78516;SHT31;67815;51.990;5.688;2023-08-20T02:26:38;21.5;68.8
78516;SHT31;67815;51.990;5.688;2023-08-20T02:29:07;21.5;69.1
78516;SHT31;67815;51.990;5.688;2023-08-20T02:31:37;21.4;69.1
78516;SHT31;67815;51.990;5.688;2023-08-20T02:34:06;21.4;69.1
78516;SHT31;67815;51.990;5.688;2023-08-20T02:36:36;21.4;69.1
78516;SHT31;67815;51.990;5.688;2023-08-20T02:39:07;21.3;69.3
78516;SHT31;67815;51.990;5.688;2023-08-20T02:41:37;21.3;69.4
78516;SHT31;67815;51.990;5.688;2023-08-20T02:44:07;21.2;69.4
78516;SHT31;67815;51.990;5.688;2023-08-20T02:46:36;21.2;69.6
78516;SHT31;67815;51.990;5.688;2023-08-20T02:49:08;21.2;69.6
78516;SHT31;67815;51.990;5.688;2023-08-20T02:51:37;21.2;69.6
78516;SHT31;67815;51.990;5.688;2023-08-20T02:54:09;21.1;69.6
78516;SHT31;67815;51.990;5.688;2023-08-20T02:56:38;21.1;69.6
78516;SHT31;67815;51.990;5.688;2023-08-20T02:59:08;21.1;69.8
78516;SHT31;67815;51.990;5.688;2023-08-20T03:01:39;21.0;69.7
78516;SHT31;67815;51.990;5.688;2023-08-20T03:04:10;21.0;69.9
78516;SHT31;67815;51.990;5.688;2023-08-20T03:06:40;21.0;70.0
78516;SHT31;67815;51.990;5.688;2023-08-20T03:09:09;20.9;69.9
78516;SHT31;67815;51.990;5.688;2023-08-20T03:11:39;20.9;70.0
78516;SHT31;67815;51.990;5.688;2023-08-20T03:14:08;20.9;70.2
78516;SHT31;67815;51.990;5.688;2023-08-20T03:16:37;20.8;70.2
78516;SHT31;67815;51.990;5.688;2023-08-20T03:19:09;20.8;70.3
78516;SHT31;67815;51.990;5.688;2023-08-20T03:21:39;20.7;70.5
78516;SHT31;67815;51.990;5.688;2023-08-20T03:24:09;20.7;70.6
78516;SHT31;67815;51.990;5.688;2023-08-20T03:26:39;20.7;70.8
78516;SHT31;67815;51.990;5.688;2023-08-20T03:29:08;20.6;70.9
78516;SHT31;67815;51.990;5.688;2023-08-20T03:31:38;20.6;70.8
78516;SHT31;67815;51.990;5.688;2023-08-20T03:34:07;20.6;70.9
78516;SHT31;67815;51.990;5.688;2023-08-20T03:36:37;20.6;70.9
78516;SHT31;67815;51.990;5.688;2023-08-20T03:39:09;20.5;70.9
78516;SHT31;67815;51.990;5.688;2023-08-20T03:41:39;20.5;70.9
78516;SHT31;67815;51.990;5.688;2023-08-20T03:44:08;20.5;71.0
78516;SHT31;67815;51.990;5.688;2023-08-20T03:46:38;20.5;71.1
78516;SHT31;67815;51.990;5.688;2023-08-20T03:49:07;20.5;71.1
78516;SHT31;67815;51.990;5.688;2023-08-20T03:51:37;20.4;71.0
78516;SHT31;67815;51.990;5.688;2023-08-20T03:54:08;20.4;71.1
78516;SHT31;67815;51.990;5.688;2023-08-20T03:56:37;20.4;71.2
78516;SHT31;67815;51.990;5.688;2023-08-20T03:59:09;20.4;71.1
78516;SHT31;67815;51.990;5.688;2023-08-20T04:01:39;20.4;71.1
78516;SHT31;67815;51.990;5.688;2023-08-20T04:04:09;20.4;71.1
78516;SHT31;67815;51.990;5.688;2023-08-20T04:06:38;20.4;70.8
78516;SHT31;67815;51.990;5.688;2023-08-20T04:09:08;20.4;70.9
78516;SHT31;67815;51.990;5.688;2023-08-20T04:11:38;20.4;70.8
78516;SHT31;67815;51.990;5.688;2023-08-20T04:14:08;20.4;70.8
78516;SHT31;67815;51.990;5.688;2023-08-20T04:16:39;20.4;70.9
78516;SHT31;67815;51.990;5.688;2023-08-20T04:19:08;20.4;71.0
78516;SHT31;67815;51.990;5.688;2023-08-20T04:21:38;20.4;70.9
78516;SHT31;67815;51.990;5.688;2023-08-20T04:24:08;20.4;70.8
78516;SHT31;67815;51.990;5.688;2023-08-20T04:26:37;20.4;70.9
78516;SHT31;67815;51.990;5.688;2023-08-20T04:29:07;20.3;71.0
78516;SHT31;67815;51.990;5.688;2023-08-20T04:31:36;20.3;71.0
78516;SHT31;67815;51.990;5.688;2023-08-20T04:34:06;20.3;70.9
78516;SHT31;67815;51.990;5.688;2023-08-20T04:36:35;20.3;70.8
78516;SHT31;67815;51.990;5.688;2023-08-20T04:39:05;20.3;71.0
78516;SHT31;67815;51.990;5.688;2023-08-20T04:41:34;20.3;71.1
78516;SHT31;67815;51.990;5.688;2023-08-20T04:44:05;20.2;71.3
78516;SHT31;67815;51.990;5.688;2023-08-20T04:46:34;20.2;71.3
78516;SHT31;67815;51.990;5.688;2023-08-20T04:49:04;20.2;70.9
78516;SHT31;67815;51.990;5.688;2023-08-20T04:51:34;20.2;70.9
78516;SHT31;67815;51.990;5.688;2023-08-20T04:54:04;20.3;71.0
78516;SHT31;67815;51.990;5.688;2023-08-20T04:56:33;20.3;70.8
78516;SHT31;67815;51.990;5.688;2023-08-20T04:59:03;20.3;70.7
78516;SHT31;67815;51.990;5.688;2023-08-20T05:01:32;20.3;70.8
78516;SHT31;67815;51.990;5.688;2023-08-20T05:04:02;20.3;71.0
78516;SHT31;67815;51.990;5.688;2023-08-20T05:06:33;20.3;71.0
78516;SHT31;67815;51.990;5.688;2023-08-20T05:09:03;20.3;71.0
78516;SHT31;67815;51.990;5.688;2023-08-20T05:11:33;20.3;70.9
78516;SHT31;67815;51.990;5.688;2023-08-20T05:14:03;20.3;71.0
78516;SHT31;67815;51.990;5.688;2023-08-20T05:16:32;20.3;71.2
78516;SHT31;67815;51.990;5.688;2023-08-20T05:19:03;20.3;71.2
78516;SHT31;67815;51.990;5.688;2023-08-20T05:21:32;20.3;71.4
78516;SHT31;67815;51.990;5.688;2023-08-20T05:24:02;20.3;71.3
78516;SHT31;67815;51.990;5.688;2023-08-20T05:26:32;20.3;71.3
78516;SHT31;67815;51.990;5.688;2023-08-20T05:29:02;20.3;71.3
78516;SHT31;67815;51.990;5.688;2023-08-20T05:31:33;20.3;71.3
78516;SHT31;67815;51.990;5.688;2023-08-20T05:34:03;20.3;71.4
78516;SHT31;67815;51.990;5.688;2023-08-20T05:36:32;20.3;71.5
78516;SHT31;67815;51.990;5.688;2023-08-20T05:39:02;20.3;71.7
78516;SHT31;67815;51.990;5.688;2023-08-20T05:41:32;20.3;71.9
78516;SHT31;67815;51.990;5.688;2023-08-20T05:44:02;20.3;72.0
78516;SHT31;67815;51.990;5.688;2023-08-20T05:46:32;20.3;72.1
78516;SHT31;67815;51.990;5.688;2023-08-20T05:49:02;20.3;72.3
78516;SHT31;67815;51.990;5.688;2023-08-20T05:51:31;20.4;72.3
78516;SHT31;67815;51.990;5.688;2023-08-20T05:54:01;20.4;72.5
78516;SHT31;67815;51.990;5.688;2023-08-20T05:56:31;20.4;72.5
78516;SHT31;67815;51.990;5.688;2023-08-20T05:59:00;20.4;72.7
78516;SHT31;67815;51.990;5.688;2023-08-20T06:01:30;20.4;72.7
78516;SHT31;67815;51.990;5.688;2023-08-20T06:03:59;20.4;72.9
78516;SHT31;67815;51.990;5.688;2023-08-20T06:06:29;20.5;72.9
78516;SHT31;67815;51.990;5.688;2023-08-20T06:08:59;20.5;72.8
78516;SHT31;67815;51.990;5.688;2023-08-20T06:11:29;20.6;72.7
78516;SHT31;67815;51.990;5.688;2023-08-20T06:13:58;20.6;72.7
78516;SHT31;67815;51.990;5.688;2023-08-20T06:16:28;20.7;72.4
78516;SHT31;67815;51.990;5.688;2023-08-20T06:18:57;20.7;72.2
78516;SHT31;67815;51.990;5.688;2023-08-20T06:21:27;20.8;72.3
78516;SHT31;67815;51.990;5.688;2023-08-20T06:23:56;20.8;72.2
78516;SHT31;67815;51.990;5.688;2023-08-20T06:26:26;20.9;72.2
78516;SHT31;67815;51.990;5.688;2023-08-20T06:28:56;20.9;71.7
78516;SHT31;67815;51.990;5.688;2023-08-20T06:31:26;21.0;71.6
78516;SHT31;67815;51.990;5.688;2023-08-20T06:33:56;21.0;71.4
78516;SHT31;67815;51.990;5.688;2023-08-20T06:36:25;21.0;71.4
78516;SHT31;67815;51.990;5.688;2023-08-20T06:38:55;21.0;71.1
78516;SHT31;67815;51.990;5.688;2023-08-20T06:41:24;21.0;70.6
78516;SHT31;67815;51.990;5.688;2023-08-20T06:43:54;21.0;71.1
78516;SHT31;67815;51.990;5.688;2023-08-20T06:46:23;21.0;71.3
78516;SHT31;67815;51.990;5.688;2023-08-20T06:48:53;21.0;71.0
78516;SHT31;67815;51.990;5.688;2023-08-20T06:51:22;21.0;70.9
78516;SHT31;67815;51.990;5.688;2023-08-20T06:53:53;21.1;71.4
78516;SHT31;67815;51.990;5.688;2023-08-20T06:56:22;21.1;71.4
78516;SHT31;67815;51.990;5.688;2023-08-20T06:58:51;21.1;71.2
78516;SHT31;67815;51.990;5.688;2023-08-20T07:01:23;21.1;71.2
78516;SHT31;67815;51.990;5.688;2023-08-20T07:03:52;21.1;71.3
78516;SHT31;67815;51.990;5.688;2023-08-20T07:06:22;21.1;71.0
78516;SHT31;67815;51.990;5.688;2023-08-20T07:08:51;21.1;70.4
78516;SHT31;67815;51.990;5.688;2023-08-20T07:11:21;21.1;70.1
78516;SHT31;67815;51.990;5.688;2023-08-20T07:13:50;21.2;70.3
78516;SHT31;67815;51.990;5.688;2023-08-20T07:16:21;21.2;70.7
78516;SHT31;67815;51.990;5.688;2023-08-20T07:18:50;21.2;70.6
78516;SHT31;67815;51.990;5.688;2023-08-20T07:21:20;21.2;70.3
78516;SHT31;67815;51.990;5.688;2023-08-20T07:23:50;21.3;70.8
78516;SHT31;67815;51.990;5.688;2023-08-20T07:26:20;21.3;69.5
78516;SHT31;67815;51.990;5.688;2023-08-20T07:28:50;21.4;69.7
78516;SHT31;67815;51.990;5.688;2023-08-20T07:31:27;21.5;69.5
78516;SHT31;67815;51.990;5.688;2023-08-20T07:33:59;21.5;70.6
78516;SHT31;67815;51.990;5.688;2023-08-20T07:36:30;21.6;69.9
78516;SHT31;67815;51.990;5.688;2023-08-20T07:39:00;21.7;68.6
78516;SHT31;67815;51.990;5.688;2023-08-20T07:41:30;21.8;68.9
78516;SHT31;67815;51.990;5.688;2023-08-20T07:44:00;21.8;68.7
78516;SHT31;67815;51.990;5.688;2023-08-20T07:46:30;21.9;68.5
78516;SHT31;67815;51.990;5.688;2023-08-20T07:48:59;21.9;68.1
78516;SHT31;67815;51.990;5.688;2023-08-20T07:51:29;21.9;68.3
78516;SHT31;67815;51.990;5.688;2023-08-20T07:53:58;22.0;67.4
78516;SHT31;67815;51.990;5.688;2023-08-20T07:56:28;22.0;68.6
78516;SHT31;67815;51.990;5.688;2023-08-20T07:58:57;22.0;68.6
78516;SHT31;67815;51.990;5.688;2023-08-20T08:01:27;22.0;67.7
78516;SHT31;67815;51.990;5.688;2023-08-20T08:03:57;22.1;65.6
78516;SHT31;67815;51.990;5.688;2023-08-20T08:06:26;22.1;65.2
78516;SHT31;67815;51.990;5.688;2023-08-20T08:08:56;22.1;66.8
78516;SHT31;67815;51.990;5.688;2023-08-20T08:11:25;22.1;66.5
78516;SHT31;67815;51.990;5.688;2023-08-20T08:13:55;22.2;67.0
78516;SHT31;67815;51.990;5.688;2023-08-20T08:16:25;22.2;65.8
78516;SHT31;67815;51.990;5.688;2023-08-20T08:18:54;22.2;65.8
78516;SHT31;67815;51.990;5.688;2023-08-20T08:21:24;22.3;66.2
78516;SHT31;67815;51.990;5.688;2023-08-20T08:23:54;22.3;65.0
78516;SHT31;67815;51.990;5.688;2023-08-20T08:26:23;22.4;65.2
78516;SHT31;67815;51.990;5.688;2023-08-20T08:28:53;22.4;65.4
78516;SHT31;67815;51.990;5.688;2023-08-20T08:31:23;22.4;65.0
78516;SHT31;67815;51.990;5.688;2023-08-20T08:33:52;22.4;65.8
78516;SHT31;67815;51.990;5.688;2023-08-20T08:36:22;22.5;64.2
78516;SHT31;67815;51.990;5.688;2023-08-20T08:38:53;22.5;64.8
78516;SHT31;67815;51.990;5.688;2023-08-20T08:41:23;22.5;65.6
78516;SHT31;67815;51.990;5.688;2023-08-20T08:43:56;22.6;66.3
78516;SHT31;67815;51.990;5.688;2023-08-20T08:46:25;22.6;66.8
78516;SHT31;67815;51.990;5.688;2023-08-20T08:48:56;22.7;65.6
78516;SHT31;67815;51.990;5.688;2023-08-20T08:51:26;22.7;65.5
78516;SHT31;67815;51.990;5.688;2023-08-20T08:53:57;22.8;65.2
78516;SHT31;67815;51.990;5.688;2023-08-20T08:56:28;22.8;65.4
78516;SHT31;67815;51.990;5.688;2023-08-20T08:58:57;22.9;64.3
78516;SHT31;67815;51.990;5.688;2023-08-20T09:01:28;22.9;63.8
78516;SHT31;67815;51.990;5.688;2023-08-20T09:03:58;22.9;64.5
78516;SHT31;67815;51.990;5.688;2023-08-20T09:06:46;23.0;62.2
78516;SHT31;67815;51.990;5.688;2023-08-20T09:09:17;23.0;62.0
78516;SHT31;67815;51.990;5.688;2023-08-20T09:11:48;23.1;61.3
78516;SHT31;67815;51.990;5.688;2023-08-20T09:14:27;23.1;62.0
78516;SHT31;67815;51.990;5.688;2023-08-20T09:16:59;23.2;62.8
78516;SHT31;67815;51.990;5.688;2023-08-20T09:19:34;23.2;61.0
78516;SHT31;67815;51.990;5.688;2023-08-20T09:22:05;23.3;61.6
78516;SHT31;67815;51.990;5.688;2023-08-20T09:24:39;23.3;61.3
78516;SHT31;67815;51.990;5.688;2023-08-20T09:27:12;23.3;60.8
78516;SHT31;67815;51.990;5.688;2023-08-20T09:29:47;23.4;61.9
78516;SHT31;67815;51.990;5.688;2023-08-20T09:32:19;23.4;60.0
78516;SHT31;67815;51.990;5.688;2023-08-20T09:34:50;23.4;58.5
78516;SHT31;67815;51.990;5.688;2023-08-20T09:37:22;23.5;58.7
78516;SHT31;67815;51.990;5.688;2023-08-20T09:39:52;23.5;58.9
78516;SHT31;67815;51.990;5.688;2023-08-20T09:42:21;23.5;58.5
78516;SHT31;67815;51.990;5.688;2023-08-20T09:44:53;23.5;59.8
78516;SHT31;67815;51.990;5.688;2023-08-20T09:47:26;23.6;57.2
78516;SHT31;67815;51.990;5.688;2023-08-20T09:49:57;23.6;57.4
78516;SHT31;67815;51.990;5.688;2023-08-20T09:52:37;23.6;59.5
78516;SHT31;67815;51.990;5.688;2023-08-20T09:55:11;23.6;56.3
78516;SHT31;67815;51.990;5.688;2023-08-20T09:57:42;23.6;58.2
78516;SHT31;67815;51.990;5.688;2023-08-20T10:00:13;23.7;56.2
78516;SHT31;67815;51.990;5.688;2023-08-20T10:02:44;23.7;56.6
78516;SHT31;67815;51.990;5.688;2023-08-20T10:05:14;23.7;57.4
78516;SHT31;67815;51.990;5.688;2023-08-20T10:07:47;23.7;55.3
78516;SHT31;67815;51.990;5.688;2023-08-20T10:10:18;23.8;55.6
78516;SHT31;67815;51.990;5.688;2023-08-20T10:12:48;23.8;57.3
78516;SHT31;67815;51.990;5.688;2023-08-20T10:15:18;23.8;56.8
78516;SHT31;67815;51.990;5.688;2023-08-20T10:17:50;23.9;57.2
78516;SHT31;67815;51.990;5.688;2023-08-20T10:20:19;23.9;58.8
78516;SHT31;67815;51.990;5.688;2023-08-20T10:22:50;23.9;55.8
78516;SHT31;67815;51.990;5.688;2023-08-20T10:25:25;24.0;54.9
78516;SHT31;67815;51.990;5.688;2023-08-20T10:28:23;24.0;55.2
78516;SHT31;67815;51.990;5.688;2023-08-20T10:31:07;24.0;56.5
78516;SHT31;67815;51.990;5.688;2023-08-20T10:33:47;24.1;55.8
78516;SHT31;67815;51.990;5.688;2023-08-20T10:36:17;24.1;54.0
78516;SHT31;67815;51.990;5.688;2023-08-20T10:38:50;24.1;54.2
78516;SHT31;67815;51.990;5.688;2023-08-20T10:41:27;24.2;54.1
78516;SHT31;67815;51.990;5.688;2023-08-20T10:43:59;24.2;53.3
78516;SHT31;67815;51.990;5.688;2023-08-20T10:46:30;24.3;55.2
78516;SHT31;67815;51.990;5.688;2023-08-20T10:49:03;24.3;53.2
78516;SHT31;67815;51.990;5.688;2023-08-20T10:51:35;24.4;54.1
78516;SHT31;67815;51.990;5.688;2023-08-20T10:54:08;24.4;55.4
78516;SHT31;67815;51.990;5.688;2023-08-20T10:56:43;24.5;56.5
78516;SHT31;67815;51.990;5.688;2023-08-20T10:59:20;24.5;55.0
78516;SHT31;67815;51.990;5.688;2023-08-20T11:01:52;24.6;55.5
78516;SHT31;67815;51.990;5.688;2023-08-20T11:04:24;24.6;52.7
78516;SHT31;67815;51.990;5.688;2023-08-20T11:06:56;24.7;53.2
78516;SHT31;67815;51.990;5.688;2023-08-20T11:09:28;24.7;53.1
78516;SHT31;67815;51.990;5.688;2023-08-20T11:11:58;24.8;51.2
78516;SHT31;67815;51.990;5.688;2023-08-20T11:14:28;24.8;52.4
78516;SHT31;67815;51.990;5.688;2023-08-20T11:16:58;24.9;53.6
78516;SHT31;67815;51.990;5.688;2023-08-20T11:19:28;24.9;55.1
78516;SHT31;67815;51.990;5.688;2023-08-20T11:21:58;25.0;55.8
78516;SHT31;67815;51.990;5.688;2023-08-20T11:24:30;25.0;52.6
78516;SHT31;67815;51.990;5.688;2023-08-20T11:27:02;25.1;54.2
78516;SHT31;67815;51.990;5.688;2023-08-20T11:29:33;25.1;51.8
78516;SHT31;67815;51.990;5.688;2023-08-20T11:32:06;25.2;49.5
78516;SHT31;67815;51.990;5.688;2023-08-20T11:34:37;25.2;50.8
78516;SHT31;67815;51.990;5.688;2023-08-20T11:37:08;25.3;49.0
78516;SHT31;67815;51.990;5.688;2023-08-20T11:39:40;25.3;47.4
78516;SHT31;67815;51.990;5.688;2023-08-20T11:42:11;25.4;47.8
78516;SHT31;67815;51.990;5.688;2023-08-20T11:44:46;25.4;47.3
78516;SHT31;67815;51.990;5.688;2023-08-20T11:47:17;25.5;48.3
78516;SHT31;67815;51.990;5.688;2023-08-20T11:49:47;25.5;50.2
78516;SHT31;67815;51.990;5.688;2023-08-20T11:52:18;25.5;47.3
78516;SHT31;67815;51.990;5.688;2023-08-20T11:54:49;25.6;49.1
78516;SHT31;67815;51.990;5.688;2023-08-20T11:57:18;25.6;48.9
78516;SHT31;67815;51.990;5.688;2023-08-20T11:59:50;25.6;49.1
78516;SHT31;67815;51.990;5.688;2023-08-20T12:02:27;25.6;49.6
78516;SHT31;67815;51.990;5.688;2023-08-20T12:04:58;25.7;48.8
78516;SHT31;67815;51.990;5.688;2023-08-20T12:07:29;25.7;47.6
78516;SHT31;67815;51.990;5.688;2023-08-20T12:09:58;25.7;48.3
78516;SHT31;67815;51.990;5.688;2023-08-20T12:12:34;25.7;48.5
78516;SHT31;67815;51.990;5.688;2023-08-20T12:15:04;25.8;47.1
78516;SHT31;67815;51.990;5.688;2023-08-20T12:17:36;25.8;48.0
78516;SHT31;67815;51.990;5.688;2023-08-20T12:20:07;25.8;47.8
78516;SHT31;67815;51.990;5.688;2023-08-20T12:22:40;25.9;48.5
78516;SHT31;67815;51.990;5.688;2023-08-20T12:25:10;25.9;48.0
78516;SHT31;67815;51.990;5.688;2023-08-20T12:27:41;25.9;46.8
78516;SHT31;67815;51.990;5.688;2023-08-20T12:30:11;26.0;46.4
78516;SHT31;67815;51.990;5.688;2023-08-20T12:32:42;26.0;47.3
78516;SHT31;67815;51.990;5.688;2023-08-20T12:35:12;26.0;48.2
78516;SHT31;67815;51.990;5.688;2023-08-20T12:37:42;26.1;48.4
78516;SHT31;67815;51.990;5.688;2023-08-20T12:40:12;26.1;49.5
78516;SHT31;67815;51.990;5.688;2023-08-20T12:42:43;26.1;49.9
78516;SHT31;67815;51.990;5.688;2023-08-20T12:45:14;26.2;47.7
78516;SHT31;67815;51.990;5.688;2023-08-20T12:47:43;26.2;48.6
78516;SHT31;67815;51.990;5.688;2023-08-20T12:50:13;26.2;49.0
78516;SHT31;67815;51.990;5.688;2023-08-20T12:52:42;26.3;47.5
78516;SHT31;67815;51.990;5.688;2023-08-20T12:55:13;26.3;48.4
78516;SHT31;67815;51.990;5.688;2023-08-20T12:57:55;26.3;50.6
78516;SHT31;67815;51.990;5.688;2023-08-20T13:00:26;26.4;48.9
78516;SHT31;67815;51.990;5.688;2023-08-20T13:02:57;26.4;48.7
78516;SHT31;67815;51.990;5.688;2023-08-20T13:05:28;26.5;48.2
78516;SHT31;67815;51.990;5.688;2023-08-20T13:07:59;26.5;48.4
78516;SHT31;67815;51.990;5.688;2023-08-20T13:10:30;26.6;49.0
78516;SHT31;67815;51.990;5.688;2023-08-20T13:13:01;26.6;47.7
78516;SHT31;67815;51.990;5.688;2023-08-20T13:15:32;26.7;50.0
78516;SHT31;67815;51.990;5.688;2023-08-20T13:18:03;26.7;46.0
78516;SHT31;67815;51.990;5.688;2023-08-20T13:20:35;26.8;46.0
78516;SHT31;67815;51.990;5.688;2023-08-20T13:23:04;26.8;46.0
78516;SHT31;67815;51.990;5.688;2023-08-20T13:25:34;26.8;47.2
78516;SHT31;67815;51.990;5.688;2023-08-20T13:28:04;26.8;48.0
78516;SHT31;67815;51.990;5.688;2023-08-20T13:30:37;26.9;45.0
78516;SHT31;67815;51.990;5.688;2023-08-20T13:33:07;26.9;46.1
78516;SHT31;67815;51.990;5.688;2023-08-20T13:35:36;26.9;47.4
78516;SHT31;67815;51.990;5.688;2023-08-20T13:38:08;26.9;45.7
78516;SHT31;67815;51.990;5.688;2023-08-20T13:40:37;26.9;44.5
78516;SHT31;67815;51.990;5.688;2023-08-20T13:43:07;27.0;44.8
78516;SHT31;67815;51.990;5.688;2023-08-20T13:45:36;27.0;46.1
78516;SHT31;67815;51.990;5.688;2023-08-20T13:48:07;27.0;45.8
78516;SHT31;67815;51.990;5.688;2023-08-20T13:50:39;27.0;44.6
78516;SHT31;67815;51.990;5.688;2023-08-20T13:53:08;27.0;47.1
78516;SHT31;67815;51.990;5.688;2023-08-20T13:55:38;27.1;44.8
78516;SHT31;67815;51.990;5.688;2023-08-20T13:58:08;27.1;45.9
78516;SHT31;67815;51.990;5.688;2023-08-20T14:00:37;27.1;45.2
78516;SHT31;67815;51.990;5.688;2023-08-20T14:03:06;27.1;45.8
78516;SHT31;67815;51.990;5.688;2023-08-20T14:05:36;27.1;46.0
78516;SHT31;67815;51.990;5.688;2023-08-20T14:08:07;27.1;45.2
78516;SHT31;67815;51.990;5.688;2023-08-20T14:10:37;27.1;44.7
78516;SHT31;67815;51.990;5.688;2023-08-20T14:13:07;27.2;45.0
78516;SHT31;67815;51.990;5.688;2023-08-20T14:15:36;27.2;46.1
78516;SHT31;67815;51.990;5.688;2023-08-20T14:18:06;27.2;46.2
78516;SHT31;67815;51.990;5.688;2023-08-20T14:20:36;27.2;47.5
78516;SHT31;67815;51.990;5.688;2023-08-20T14:23:08;27.3;46.2
78516;SHT31;67815;51.990;5.688;2023-08-20T14:25:38;27.3;46.1
78516;SHT31;67815;51.990;5.688;2023-08-20T14:28:08;27.4;47.7
78516;SHT31;67815;51.990;5.688;2023-08-20T14:30:38;27.4;45.6
78516;SHT31;67815;51.990;5.688;2023-08-20T14:33:08;27.5;45.8
78516;SHT31;67815;51.990;5.688;2023-08-20T14:35:38;27.5;44.6
78516;SHT31;67815;51.990;5.688;2023-08-20T14:38:07;27.5;45.9
78516;SHT31;67815;51.990;5.688;2023-08-20T14:40:40;27.6;45.5
78516;SHT31;67815;51.990;5.688;2023-08-20T14:43:11;27.6;45.2
78516;SHT31;67815;51.990;5.688;2023-08-20T14:45:41;27.7;47.2
78516;SHT31;67815;51.990;5.688;2023-08-20T14:48:13;27.7;44.6
78516;SHT31;67815;51.990;5.688;2023-08-20T14:50:42;27.7;43.9
78516;SHT31;67815;51.990;5.688;2023-08-20T14:53:13;27.8;44.0
78516;SHT31;67815;51.990;5.688;2023-08-20T14:55:42;27.8;43.1
78516;SHT31;67815;51.990;5.688;2023-08-20T14:58:12;27.8;45.9
78516;SHT31;67815;51.990;5.688;2023-08-20T15:00:42;27.9;45.2
78516;SHT31;67815;51.990;5.688;2023-08-20T15:03:11;27.9;44.1
78516;SHT31;67815;51.990;5.688;2023-08-20T15:05:42;27.9;45.9
78516;SHT31;67815;51.990;5.688;2023-08-20T15:08:12;27.9;45.3
78516;SHT31;67815;51.990;5.688;2023-08-20T15:10:41;28.0;45.5
78516;SHT31;67815;51.990;5.688;2023-08-20T15:13:13;28.0;44.6
78516;SHT31;67815;51.990;5.688;2023-08-20T15:15:42;28.0;44.9
78516;SHT31;67815;51.990;5.688;2023-08-20T15:18:12;28.1;46.8
78516;SHT31;67815;51.990;5.688;2023-08-20T15:20:41;28.1;44.3
78516;SHT31;67815;51.990;5.688;2023-08-20T15:23:11;28.1;45.4
78516;SHT31;67815;51.990;5.688;2023-08-20T15:25:41;28.2;45.8
78516;SHT31;67815;51.990;5.688;2023-08-20T15:28:10;28.2;48.0
78516;SHT31;67815;51.990;5.688;2023-08-20T15:30:40;28.2;46.1
78516;SHT31;67815;51.990;5.688;2023-08-20T15:33:09;28.2;47.3
78516;SHT31;67815;51.990;5.688;2023-08-20T15:35:39;28.2;47.4
78516;SHT31;67815;51.990;5.688;2023-08-20T15:38:08;28.3;48.6
78516;SHT31;67815;51.990;5.688;2023-08-20T15:40:38;28.3;48.2
78516;SHT31;67815;51.990;5.688;2023-08-20T15:43:08;28.3;45.0
78516;SHT31;67815;51.990;5.688;2023-08-20T15:45:40;28.3;46.5
78516;SHT31;67815;51.990;5.688;2023-08-20T15:48:12;28.3;45.0
78516;SHT31;67815;51.990;5.688;2023-08-20T15:50:42;28.3;47.1
78516;SHT31;67815;51.990;5.688;2023-08-20T15:53:11;28.3;44.6
78516;SHT31;67815;51.990;5.688;2023-08-20T15:55:41;28.3;45.1
78516;SHT31;67815;51.990;5.688;2023-08-20T15:58:10;28.3;43.9
78516;SHT31;67815;51.990;5.688;2023-08-20T16:00:40;28.3;45.3
78516;SHT31;67815;51.990;5.688;2023-08-20T16:03:10;28.3;44.6
78516;SHT31;67815;51.990;5.688;2023-08-20T16:05:41;28.2;45.0
78516;SHT31;67815;51.990;5.688;2023-08-20T16:08:10;28.2;44.6
78516;SHT31;67815;51.990;5.688;2023-08-20T16:10:40;28.2;45.3
78516;SHT31;67815;51.990;5.688;2023-08-20T16:13:09;28.1;46.3
78516;SHT31;67815;51.990;5.688;2023-08-20T16:15:41;28.1;45.0
78516;SHT31;67815;51.990;5.688;2023-08-20T16:18:10;28.0;48.8
78516;SHT31;67815;51.990;5.688;2023-08-20T16:20:39;28.0;48.1
78516;SHT31;67815;51.990;5.688;2023-08-20T16:23:10;28.0;49.3
78516;SHT31;67815;51.990;5.688;2023-08-20T16:25:40;27.9;47.4